createdAt,value
2018-06-12T00:02:51.328Z,45.41
2018-06-12T00:03:51.314Z,44.19
2018-06-12T00:04:52.813Z,47.61
2018-06-12T00:05:51.825Z,45.17
2018-06-12T00:06:51.815Z,44.19
2018-06-12T00:07:51.815Z,44.43
2018-06-12T00:09:15.315Z,45.17
2018-06-12T00:09:52.315Z,44.92
2018-06-12T00:10:52.315Z,44.19
2018-06-12T00:11:52.313Z,44.43
2018-06-12T00:12:52.815Z,45.17
2018-06-12T00:13:52.814Z,58.35
2018-06-12T00:14:52.815Z,84.96
2018-06-12T00:15:52.814Z,43.95
2018-06-12T00:17:15.747Z,81.05
2018-06-12T00:17:53.314Z,43.95
2018-06-12T00:18:53.314Z,43.95
2018-06-12T00:19:53.315Z,44.68
2018-06-12T00:20:53.813Z,44.19
2018-06-12T00:21:53.040Z,44.43
2018-06-12T00:22:53.820Z,44.43
2018-06-12T00:23:53.816Z,44.43
2018-06-12T00:24:54.317Z,44.68
2018-06-12T00:25:54.319Z,44.68
2018-06-12T00:26:54.316Z,44.68
2018-06-12T00:27:54.315Z,46.88
2018-06-12T00:28:54.814Z,84.96
2018-06-12T00:29:54.815Z,44.19
2018-06-12T00:30:54.849Z,44.19
2018-06-12T00:31:54.285Z,44.92
2018-06-12T00:32:54.380Z,44.43
2018-06-12T00:33:55.316Z,44.68
2018-06-12T00:34:55.315Z,48.10
2018-06-12T00:35:55.316Z,47.61
2018-06-12T00:36:55.323Z,44.43
2018-06-12T00:37:55.816Z,45.65
2018-06-12T00:38:55.044Z,44.92
2018-06-12T00:39:55.815Z,44.43
2018-06-12T00:40:55.815Z,44.68
2018-06-12T00:41:56.313Z,44.68
2018-06-12T00:42:55.540Z,44.43
2018-06-12T00:43:56.315Z,46.14
2018-06-12T00:44:56.315Z,48.58
2018-06-12T00:45:56.817Z,48.58
2018-06-12T00:46:57.748Z,46.63
2018-06-12T00:50:28.322Z,45.17
2018-06-12T00:51:28.324Z,44.43
2018-06-12T00:52:28.823Z,44.92
2018-06-12T00:53:28.823Z,45.17
2018-06-12T00:54:28.822Z,46.63
2018-06-12T00:55:28.829Z,45.17
2018-06-12T00:56:29.323Z,44.92
2018-06-12T00:57:29.323Z,44.43
2018-06-12T00:58:29.323Z,44.68
2018-06-12T00:59:29.323Z,47.36
2018-06-12T01:00:50.822Z,46.63
2018-06-12T01:01:29.832Z,44.43
2018-06-12T01:02:29.823Z,45.17
2018-06-12T01:03:29.823Z,45.41
2018-06-12T01:04:30.330Z,44.43
2018-06-12T01:05:30.323Z,45.65
2018-06-12T01:06:30.322Z,44.68
2018-06-12T01:07:29.807Z,44.92
2018-06-12T01:08:30.823Z,46.39
2018-06-12T01:09:30.829Z,44.68
2018-06-12T01:10:30.173Z,44.92
2018-06-12T01:11:30.826Z,45.65
2018-06-12T01:12:31.323Z,44.68
2018-06-12T01:13:30.548Z,44.92
2018-06-12T01:14:31.365Z,84.96
2018-06-12T01:15:31.328Z,44.92
2018-06-12T01:16:31.331Z,45.65
2018-06-12T01:17:31.823Z,45.41
2018-06-12T01:18:31.823Z,46.88
2018-06-12T01:19:31.823Z,82.03
2018-06-12T01:20:31.823Z,44.43
2018-06-12T01:21:38.324Z,44.68
2018-06-12T01:22:32.325Z,44.43
2018-06-12T01:23:32.324Z,46.39
2018-06-12T01:24:32.324Z,44.43
2018-06-12T01:25:32.833Z,44.68
2018-06-12T01:26:32.077Z,44.92
2018-06-12T01:27:32.824Z,44.43
2018-06-12T01:28:32.827Z,44.43
2018-06-12T01:29:33.323Z,44.43
2018-06-12T01:30:34.321Z,46.63
2018-06-12T01:31:33.327Z,45.17
2018-06-12T01:32:33.329Z,44.43
2018-06-12T01:33:39.823Z,48.10
2018-06-12T01:37:26.700Z,44.92
2018-06-12T01:38:07.134Z,44.92
2018-06-12T01:39:05.703Z,44.68
2018-06-12T01:40:06.202Z,44.68
2018-06-12T01:41:12.201Z,45.90
2018-06-12T01:42:06.202Z,44.92
2018-06-12T01:43:06.200Z,44.92
2018-06-12T01:44:06.705Z,45.17
2018-06-12T01:45:06.700Z,44.92
2018-06-12T01:46:06.703Z,51.27
2018-06-12T01:47:08.635Z,45.65
2018-06-12T01:48:09.634Z,44.92
2018-06-12T01:49:08.697Z,44.92
2018-06-12T01:50:08.635Z,44.92
2018-06-12T01:51:07.202Z,45.17
2018-06-12T01:54:39.895Z,44.43
2018-06-12T01:55:38.955Z,47.85
2018-06-12T01:56:38.431Z,44.43
2018-06-12T01:58:01.453Z,44.92
2018-06-12T01:58:39.461Z,44.43
2018-06-12T01:59:41.456Z,44.68
2018-06-12T02:00:41.455Z,44.68
2018-06-12T02:01:39.055Z,51.51
2018-06-12T02:02:39.959Z,49.07
2018-06-12T02:03:39.955Z,44.43
2018-06-12T02:04:39.973Z,44.19
2018-06-12T02:05:45.888Z,44.68
2018-06-12T02:06:42.389Z,45.90
2018-06-12T02:07:40.456Z,47.36
2018-06-12T02:08:40.453Z,45.17
2018-06-12T02:09:40.955Z,44.68
2018-06-12T02:10:54.956Z,46.63
2018-06-12T02:11:40.956Z,47.36
2018-06-12T02:12:40.956Z,54.93
2018-06-12T02:13:41.455Z,53.22
2018-06-12T02:14:41.456Z,50.29
2018-06-12T02:15:41.456Z,48.83
2018-06-12T02:16:42.388Z,49.80
2018-06-12T02:17:41.956Z,48.83
2018-06-12T02:18:55.954Z,49.56
2018-06-12T02:19:41.311Z,50.54
2018-06-12T02:20:41.956Z,83.98
2018-06-12T02:21:42.454Z,49.80
2018-06-12T02:22:43.929Z,80.81
2018-06-12T02:23:41.790Z,50.54
2018-06-12T02:24:42.457Z,63.48
2018-06-12T02:25:42.456Z,61.77
2018-06-12T02:26:42.956Z,60.79
2018-06-12T02:27:42.186Z,62.26
2018-06-12T02:28:42.952Z,63.48
2018-06-12T02:29:42.954Z,63.48
2018-06-12T02:30:42.551Z,62.01
2018-06-12T02:31:43.455Z,57.13
2018-06-12T02:32:43.456Z,60.30
2018-06-12T02:33:42.930Z,60.55
2018-06-12T02:35:04.030Z,60.30
2018-06-12T02:35:43.959Z,68.36
2018-06-12T02:36:47.887Z,62.26
2018-06-12T02:37:43.963Z,63.48
2018-06-12T02:38:43.954Z,58.11
2018-06-12T02:39:44.459Z,56.64
2018-06-12T02:41:11.464Z,54.20
2018-06-12T02:41:44.456Z,55.42
2018-06-12T02:42:44.459Z,52.73
2018-06-12T02:43:44.974Z,63.72
2018-06-12T02:44:44.200Z,79.10
2018-06-12T02:45:44.956Z,53.22
2018-06-12T02:47:06.456Z,59.57
2018-06-12T02:47:45.455Z,53.47
2018-06-12T02:48:45.455Z,53.22
2018-06-12T02:49:45.453Z,61.04
2018-06-12T02:50:45.458Z,56.88
2018-06-12T02:51:45.955Z,55.18
2018-06-12T02:52:45.955Z,54.93
2018-06-12T02:53:45.956Z,89.60
2018-06-12T02:54:45.967Z,85.21
2018-06-12T02:56:07.459Z,84.23
2018-06-12T02:57:07.456Z,52.00
2018-06-12T02:58:07.463Z,63.72
2018-06-12T02:58:46.455Z,49.07
2018-06-12T03:02:18.217Z,65.67
2018-06-12T03:03:18.221Z,82.52
2018-06-12T03:04:24.717Z,54.69
2018-06-12T03:05:39.717Z,49.32
2018-06-12T03:06:39.084Z,53.96
2018-06-12T03:07:39.717Z,50.54
2018-06-12T03:08:19.216Z,52.00
2018-06-12T03:09:19.214Z,50.78
2018-06-12T03:10:19.216Z,51.03
2018-06-12T03:11:19.221Z,50.54
2018-06-12T03:12:19.721Z,51.03
2018-06-12T03:13:40.717Z,61.04
2018-06-12T03:14:19.070Z,50.05
2018-06-12T03:15:40.722Z,49.32
2018-06-12T03:16:21.215Z,51.51
2018-06-12T03:17:20.218Z,81.54
2018-06-12T03:18:20.225Z,53.22
2018-06-12T03:19:20.223Z,55.18
2018-06-12T03:20:20.717Z,53.71
2018-06-12T03:21:41.720Z,87.89
2018-06-12T03:22:20.068Z,57.86
2018-06-12T03:23:20.735Z,57.13
2018-06-12T03:24:36.693Z,58.59
2018-06-12T03:25:22.196Z,84.47
2018-06-12T03:26:21.217Z,85.45
2018-06-12T03:27:21.216Z,65.92
2018-06-12T03:28:42.725Z,54.69
2018-06-12T03:29:42.716Z,52.73
2018-06-12T03:30:42.684Z,57.62
2018-06-12T03:31:21.717Z,67.14
2018-06-12T03:32:22.213Z,86.91
2018-06-12T03:33:43.212Z,55.66
2018-06-12T03:34:22.221Z,52.73
2018-06-12T03:35:21.695Z,86.18
2018-06-12T03:36:43.717Z,52.25
2018-06-12T03:37:22.719Z,54.93
2018-06-12T03:38:22.725Z,89.84
2018-06-12T03:39:22.717Z,54.93
2018-06-12T03:40:44.257Z,54.44
2018-06-12T03:41:23.218Z,62.74
2018-06-12T03:42:23.217Z,85.94
2018-06-12T03:43:23.222Z,74.46
2018-06-12T03:44:44.718Z,57.13
2018-06-12T03:45:43.923Z,50.05
2018-06-12T03:46:44.717Z,87.40
2018-06-12T03:47:23.717Z,55.66
2018-06-12T03:48:50.151Z,52.73
2018-06-12T03:49:24.220Z,54.20
2018-06-12T03:50:44.440Z,83.25
2018-06-12T03:51:24.216Z,63.48
2018-06-12T03:52:24.220Z,65.19
2018-06-12T03:53:24.716Z,90.33
2018-06-12T03:54:24.718Z,52.00
2018-06-12T03:55:24.717Z,89.84
2018-06-12T03:56:25.217Z,51.51
2018-06-12T03:57:46.219Z,88.87
2018-06-12T03:58:25.221Z,52.25
2018-06-12T03:59:25.220Z,88.87
2018-06-12T04:00:46.217Z,85.69
2018-06-12T04:01:31.717Z,50.54
2018-06-12T04:02:25.716Z,81.54
2018-06-12T04:03:25.067Z,88.38
2018-06-12T04:04:25.166Z,68.85
2018-06-12T04:05:25.273Z,86.67
2018-06-12T04:06:26.218Z,84.47
2018-06-12T04:07:26.217Z,61.77
2018-06-12T04:08:26.261Z,88.13
2018-06-12T04:09:26.285Z,57.86
2018-06-12T04:10:26.717Z,82.28
2018-06-12T04:11:26.717Z,52.49
2018-06-12T04:12:26.719Z,50.05
2018-06-12T04:13:26.718Z,88.87
2018-06-12T04:14:27.259Z,84.96
2018-06-12T04:17:58.594Z,49.56
2018-06-12T04:21:30.301Z,61.04
2018-06-12T04:22:51.308Z,69.09
2018-06-12T04:23:51.796Z,54.20
2018-06-12T04:24:30.795Z,84.72
2018-06-12T04:25:30.796Z,86.43
2018-06-12T04:26:30.796Z,88.38
2018-06-12T04:27:37.295Z,59.57
2018-06-12T04:28:31.297Z,85.69
2018-06-12T04:29:31.296Z,82.76
2018-06-12T04:30:31.297Z,86.18
2018-06-12T04:31:31.796Z,61.04
2018-06-12T04:32:34.227Z,77.88
2018-06-12T04:33:31.795Z,63.96
2018-06-12T04:34:31.795Z,60.55
2018-06-12T04:35:53.296Z,82.28
2018-06-12T04:36:38.302Z,82.52
2018-06-12T04:37:53.292Z,73.73
2018-06-12T04:38:32.302Z,53.96
2018-06-12T04:39:33.727Z,86.18
2018-06-12T04:40:53.799Z,80.32
2018-06-12T04:41:33.728Z,71.04
2018-06-12T04:42:32.796Z,83.74
2018-06-12T04:43:54.295Z,60.30
2018-06-12T04:44:54.295Z,61.52
2018-06-12T04:45:33.297Z,81.54
2018-06-12T04:46:33.296Z,87.89
2018-06-12T04:47:54.796Z,70.80
2018-06-12T04:48:33.796Z,90.09
2018-06-12T04:49:33.796Z,74.95
2018-06-12T04:50:33.796Z,86.43
2018-06-12T04:51:36.293Z,68.12
2018-06-12T04:52:34.296Z,87.89
2018-06-12T04:53:55.301Z,91.31
2018-06-12T04:54:34.345Z,83.01
2018-06-12T04:55:34.796Z,83.50
2018-06-12T04:56:40.796Z,83.98
2018-06-12T04:57:34.794Z,58.59
2018-06-12T04:58:34.806Z,66.16
2018-06-12T04:59:35.298Z,83.98
2018-06-12T05:00:58.295Z,81.54
2018-06-12T05:01:35.299Z,86.18
2018-06-12T05:02:35.298Z,79.35
2018-06-12T05:03:35.797Z,85.45
2018-06-12T05:04:56.006Z,83.25
2018-06-12T05:05:35.796Z,85.45
2018-06-12T05:06:35.797Z,58.11
2018-06-12T05:07:36.309Z,83.74
2018-06-12T05:08:36.297Z,85.45
2018-06-12T05:09:36.296Z,69.34
2018-06-12T05:10:36.351Z,81.05
2018-06-12T05:11:36.808Z,51.76
2018-06-12T05:12:57.023Z,87.89
2018-06-12T05:16:07.870Z,84.47
2018-06-12T05:17:29.783Z,85.94
2018-06-12T05:18:08.131Z,81.79
2018-06-12T05:19:08.777Z,85.21
2018-06-12T05:20:36.775Z,86.18
2018-06-12T05:21:09.275Z,84.47
2018-06-12T05:22:09.274Z,87.16
2018-06-12T05:23:09.278Z,90.09
2018-06-12T05:24:29.851Z,91.31
2018-06-12T05:25:11.207Z,85.69
2018-06-12T05:26:09.775Z,87.65
2018-06-12T05:27:09.831Z,86.43
2018-06-12T05:28:16.277Z,85.45
2018-06-12T05:29:31.275Z,86.67
2018-06-12T05:30:10.273Z,84.23
2018-06-12T05:31:09.767Z,86.67
2018-06-12T05:32:24.776Z,87.16
2018-06-12T05:33:16.210Z,63.23
2018-06-12T05:34:31.780Z,88.87
2018-06-12T05:35:16.775Z,87.89
2018-06-12T05:36:17.278Z,78.37
2018-06-12T05:37:34.276Z,87.65
2018-06-12T05:38:13.279Z,83.50
2018-06-12T05:39:11.275Z,86.91
2018-06-12T05:40:31.857Z,85.21
2018-06-12T05:41:31.940Z,84.23
2018-06-12T05:42:32.777Z,87.89
2018-06-12T05:43:15.248Z,87.16
2018-06-12T05:44:11.781Z,86.91
2018-06-12T05:45:14.274Z,55.42
2018-06-12T05:46:12.276Z,57.62
2018-06-12T05:49:43.800Z,88.13
2018-06-12T05:50:43.270Z,91.31
2018-06-12T05:54:22.522Z,88.13
2018-06-12T05:55:18.523Z,88.38
2018-06-12T05:56:16.031Z,86.18
2018-06-12T05:57:17.475Z,86.43
2018-06-12T05:58:16.024Z,89.36
2018-06-12T05:59:43.029Z,85.21
2018-06-12T06:00:17.456Z,82.76
2018-06-12T06:01:16.463Z,90.09
2018-06-12T06:02:15.715Z,86.67
2018-06-12T06:03:16.533Z,89.60
2018-06-12T06:07:02.062Z,69.09
2018-06-12T06:07:50.991Z,87.40
2018-06-12T06:11:19.847Z,86.67
2018-06-12T06:12:19.821Z,87.65
2018-06-12T06:13:20.321Z,88.13
2018-06-12T06:14:20.321Z,53.71
2018-06-12T06:15:41.321Z,84.23
2018-06-12T06:16:20.321Z,53.47
2018-06-12T06:17:41.824Z,69.34
2018-06-12T06:18:25.796Z,48.83
2018-06-12T06:19:20.822Z,81.30
2018-06-12T06:20:41.821Z,79.35
2018-06-12T06:21:21.332Z,81.54
2018-06-12T06:24:52.059Z,89.84
2018-06-12T06:25:52.721Z,87.89
2018-06-12T06:26:52.341Z,89.11
2018-06-12T06:27:54.155Z,84.47
2018-06-12T06:29:07.229Z,89.36
2018-06-12T06:29:55.221Z,84.47
2018-06-12T06:30:53.220Z,82.76
2018-06-12T06:31:53.720Z,88.62
2018-06-12T06:37:57.132Z,83.98
2018-06-12T06:38:57.134Z,82.76
2018-06-12T06:40:20.635Z,84.72
2018-06-12T06:43:29.020Z,84.72
2018-06-12T06:44:30.950Z,84.96
2018-06-12T06:45:29.519Z,80.81
2018-06-12T06:46:29.532Z,56.15
2018-06-12T06:47:29.517Z,88.38
2018-06-12T06:48:29.514Z,87.65
2018-06-12T06:49:29.136Z,65.92
2018-06-12T06:50:30.019Z,87.40
2018-06-12T06:51:32.018Z,64.45
2018-06-12T06:52:29.494Z,87.89
2018-06-12T06:53:29.596Z,65.67
2018-06-12T06:54:52.977Z,83.25
2018-06-12T06:55:52.490Z,81.54
2018-06-12T06:56:50.949Z,85.69
2018-06-12T06:57:32.450Z,73.24
2018-06-12T06:58:51.208Z,81.54
2018-06-12T06:59:31.024Z,87.65
2018-06-12T07:00:32.450Z,86.91
2018-06-12T07:01:31.019Z,86.18
2018-06-12T07:02:31.516Z,88.13
2018-06-12T07:03:51.721Z,83.98
2018-06-12T07:04:42.947Z,73.73
2018-06-12T07:05:30.987Z,87.40
2018-06-12T07:06:32.034Z,62.50
2018-06-12T07:07:34.948Z,86.91
2018-06-12T07:08:33.949Z,87.16
2018-06-12T07:09:53.020Z,83.50
2018-06-12T07:10:32.030Z,61.04
2018-06-12T07:11:34.513Z,89.60
2018-06-12T07:15:03.972Z,66.16
2018-06-12T07:16:03.906Z,83.50
2018-06-12T07:17:04.399Z,86.43
2018-06-12T07:18:03.651Z,87.65
2018-06-12T07:19:04.398Z,79.59
2018-06-12T07:20:03.872Z,57.86
2018-06-12T07:21:18.899Z,84.96
2018-06-12T07:22:04.131Z,63.23
2018-06-12T07:23:10.898Z,89.11
2018-06-12T07:24:04.901Z,87.65
2018-06-12T07:25:04.502Z,74.71
2018-06-12T07:28:37.252Z,83.98
2018-06-12T07:29:40.684Z,85.94
2018-06-12T07:30:37.253Z,82.76
2018-06-12T07:31:57.832Z,62.50
2018-06-12T07:32:37.750Z,84.72
2018-06-12T07:33:37.118Z,82.76
2018-06-12T07:34:39.184Z,82.52
2018-06-12T07:35:58.327Z,76.17
2018-06-12T07:36:38.259Z,80.32
2018-06-12T07:37:37.516Z,84.23
2018-06-12T07:38:38.252Z,83.50
2018-06-12T07:39:38.253Z,76.42
2018-06-12T07:40:59.753Z,74.95
2018-06-12T07:41:38.753Z,89.36
2018-06-12T07:42:38.752Z,87.89
2018-06-12T07:43:38.748Z,84.96
2018-06-12T07:44:39.252Z,55.18
2018-06-12T07:45:39.253Z,84.23
2018-06-12T07:46:38.618Z,88.13
2018-06-12T07:47:39.269Z,86.67
2018-06-12T07:48:39.753Z,84.23
2018-06-12T07:49:41.757Z,85.45
2018-06-12T07:50:41.754Z,60.79
2018-06-12T07:55:34.500Z,80.32
2018-06-12T07:56:31.960Z,82.28
2018-06-12T08:01:17.575Z,83.98
2018-06-12T08:02:17.529Z,85.21
2018-06-12T08:03:16.598Z,89.60
2018-06-12T08:06:47.977Z,83.74
2018-06-12T08:07:47.979Z,82.76
2018-06-12T08:08:48.478Z,82.28
2018-06-12T08:10:02.486Z,85.45
2018-06-12T08:10:48.476Z,85.45
2018-06-12T08:11:48.477Z,83.01
2018-06-12T08:13:10.054Z,83.50
2018-06-12T08:14:09.978Z,80.81
2018-06-12T08:14:54.976Z,52.00
2018-06-12T08:15:48.977Z,86.18
2018-06-12T08:16:49.505Z,84.47
2018-06-12T08:17:48.733Z,84.47
2018-06-12T08:19:10.483Z,85.94
2018-06-12T08:19:49.479Z,58.59
2018-06-12T08:20:49.086Z,48.83
2018-06-12T08:21:49.979Z,85.69
2018-06-12T08:22:49.985Z,81.30
2018-06-12T08:24:10.985Z,85.69
2018-06-12T08:27:42.052Z,66.41
2018-06-12T08:28:42.728Z,51.03
2018-06-12T08:29:22.246Z,56.88
2018-06-12T08:30:49.268Z,62.74
2018-06-12T08:31:42.431Z,83.01
2018-06-12T08:32:22.229Z,73.00
2018-06-12T08:33:22.228Z,83.98
2018-06-12T08:34:43.725Z,85.21
2018-06-12T08:35:43.731Z,86.43
2018-06-12T08:38:54.232Z,83.01
2018-06-12T08:39:54.360Z,81.54
2018-06-12T08:43:39.939Z,84.47
2018-06-12T08:44:25.943Z,82.52
2018-06-12T08:47:57.072Z,81.54
2018-06-12T08:48:57.731Z,85.21
2018-06-12T08:49:58.233Z,84.96
2018-06-12T08:51:04.231Z,86.91
2018-06-12T08:54:31.747Z,85.45
2018-06-12T08:55:29.742Z,70.07
2018-06-12T08:56:30.236Z,75.93
2018-06-12T08:57:29.463Z,83.50
2018-06-12T08:58:29.561Z,82.76
2018-06-12T08:59:29.664Z,84.47
2018-06-12T09:00:46.192Z,83.25
2018-06-12T09:01:29.941Z,82.28
2018-06-12T09:02:30.737Z,78.13
2018-06-12T09:03:32.210Z,65.92
2018-06-12T09:04:30.799Z,66.89
2018-06-12T09:05:30.288Z,82.03
2018-06-12T09:06:53.688Z,82.52
2018-06-12T09:11:34.065Z,82.52
2018-06-12T09:12:55.064Z,80.57
2018-06-12T09:13:34.565Z,57.86
2018-06-12T09:14:54.770Z,81.54
2018-06-12T09:18:07.505Z,84.96
2018-06-12T09:19:27.032Z,80.57
2018-06-12T09:20:06.535Z,80.57
2018-06-12T09:21:27.533Z,80.81
2018-06-12T09:22:27.540Z,87.65
2018-06-12T09:23:07.965Z,83.98
2018-06-12T09:24:28.037Z,77.88
2018-06-12T09:25:28.033Z,84.96
2018-06-12T09:26:07.031Z,82.28
2018-06-12T09:27:08.465Z,85.45
2018-06-12T09:28:13.533Z,80.32
2018-06-12T09:29:13.532Z,81.54
2018-06-12T09:30:07.533Z,85.21
2018-06-12T09:31:28.537Z,82.03
2018-06-12T09:34:39.308Z,83.01
2018-06-12T09:35:39.418Z,83.01
2018-06-12T09:36:38.902Z,85.94
2018-06-12T09:37:39.808Z,80.57
2018-06-12T09:41:12.315Z,77.15
2018-06-12T09:42:12.857Z,57.62
2018-06-12T09:45:43.073Z,82.76
2018-06-12T09:47:04.074Z,57.62
2018-06-12T09:48:03.666Z,82.76
2018-06-12T09:49:03.810Z,59.08
2018-06-12T09:49:43.571Z,79.10
2018-06-12T09:50:43.574Z,52.25
2018-06-12T09:51:43.074Z,80.57
2018-06-12T09:52:45.014Z,76.90
2018-06-12T09:53:44.079Z,69.09
2018-06-12T09:55:04.291Z,82.03
2018-06-12T09:55:44.077Z,80.57
2018-06-12T09:56:44.074Z,82.03
2018-06-12T09:57:43.704Z,88.38
2018-06-12T09:58:44.507Z,85.45
2018-06-12T09:59:46.006Z,82.03
2018-06-12T10:03:16.709Z,84.47
2018-06-12T10:04:24.141Z,48.83
2018-06-12T10:07:47.796Z,82.03
2018-06-12T10:08:51.460Z,85.45
2018-06-12T10:10:10.955Z,82.03
2018-06-12T10:10:48.957Z,81.79
2018-06-12T10:12:02.954Z,60.06
2018-06-12T10:12:48.956Z,83.98
2018-06-12T10:13:55.454Z,85.45
2018-06-12T10:17:34.841Z,80.57
2018-06-12T10:18:20.841Z,84.72
2018-06-12T10:19:21.341Z,64.94
2018-06-12T10:20:21.343Z,82.52
2018-06-12T10:21:21.341Z,84.23
2018-06-12T10:22:20.816Z,77.64
2018-06-12T10:23:20.919Z,83.50
2018-06-12T10:24:21.843Z,73.49
2018-06-12T10:25:35.860Z,82.28
2018-06-12T10:26:21.213Z,59.33
2018-06-12T10:27:21.844Z,80.08
2018-06-12T10:28:21.441Z,82.76
2018-06-12T10:29:22.341Z,82.52
2018-06-12T10:30:36.343Z,80.81
2018-06-12T10:31:22.346Z,83.25
2018-06-12T10:32:45.841Z,80.32
2018-06-12T10:33:25.775Z,95.21
2018-06-12T10:34:43.845Z,85.94
2018-06-12T10:35:22.841Z,83.01
2018-06-12T10:36:22.449Z,80.57
2018-06-12T10:37:37.354Z,84.47
2018-06-12T10:38:43.667Z,80.81
2018-06-12T10:39:22.772Z,53.22
2018-06-12T10:45:57.880Z,66.41
2018-06-12T10:46:57.881Z,84.47
2018-06-12T10:48:19.386Z,85.45
2018-06-12T10:48:57.633Z,83.74
2018-06-12T10:50:04.401Z,82.76
2018-06-12T10:50:58.382Z,78.86
2018-06-12T10:52:07.812Z,83.50
2018-06-12T10:52:58.882Z,64.45
2018-06-12T10:54:01.816Z,85.69
2018-06-12T10:54:58.882Z,83.98
2018-06-12T10:56:00.332Z,79.10
2018-06-12T10:57:24.852Z,62.26
2018-06-12T10:58:13.379Z,83.98
2018-06-12T10:59:20.385Z,79.35
2018-06-12T11:00:13.391Z,83.50
2018-06-12T11:01:13.879Z,81.79
2018-06-12T11:02:13.882Z,82.52
2018-06-12T11:02:59.234Z,80.32
2018-06-12T11:04:01.356Z,83.74
2018-06-12T11:05:21.387Z,85.69
2018-06-12T11:06:15.378Z,86.67
2018-06-12T11:07:00.382Z,81.30
2018-06-12T11:08:21.386Z,84.72
2018-06-12T11:11:32.146Z,73.73
2018-06-12T11:12:53.636Z,70.07
2018-06-12T11:13:32.636Z,86.18
2018-06-12T11:14:32.658Z,52.98
2018-06-12T11:18:40.366Z,83.74
2018-06-12T11:19:40.366Z,85.69
2018-06-12T11:23:12.127Z,83.74
2018-06-12T11:27:04.764Z,67.87
2018-06-12T11:27:43.240Z,85.21
2018-06-12T11:33:47.067Z,85.69
2018-06-12T11:39:20.402Z,83.74
2018-06-12T11:40:22.406Z,81.05
2018-06-12T11:41:20.407Z,83.25
2018-06-12T11:42:21.876Z,84.23
2018-06-12T11:42:59.919Z,77.88
2018-06-12T11:43:59.919Z,85.45
2018-06-12T11:44:59.905Z,79.35
2018-06-12T11:46:14.404Z,85.69
2018-06-12T11:46:59.632Z,80.08
2018-06-12T11:50:31.896Z,82.28
2018-06-12T11:51:31.897Z,82.52
2018-06-12T11:52:32.463Z,69.09
2018-06-12T11:53:32.396Z,83.25
2018-06-12T11:54:33.335Z,80.32
2018-06-12T11:55:32.435Z,75.20
2018-06-12T11:56:32.401Z,82.03
2018-06-12T11:57:32.391Z,76.66
2018-06-12T11:58:32.893Z,83.98
2018-06-12T11:59:32.897Z,65.43
2018-06-12T12:00:53.901Z,82.76
2018-06-12T12:01:32.372Z,65.43
2018-06-12T12:02:47.397Z,84.23
2018-06-12T12:03:32.637Z,86.43
2018-06-12T12:04:33.397Z,84.96
2018-06-12T12:05:54.397Z,85.69
2018-06-12T12:06:54.894Z,86.18
2018-06-12T12:07:33.898Z,89.60
2018-06-12T12:08:33.900Z,84.47
2018-06-12T12:09:54.896Z,83.74
2018-06-12T12:10:34.401Z,83.50
2018-06-12T12:11:34.397Z,83.01
2018-06-12T12:12:34.396Z,81.79
2018-06-12T12:13:34.396Z,82.76
2018-06-12T12:14:34.896Z,87.89
2018-06-12T12:15:55.896Z,82.03
2018-06-12T12:16:36.328Z,49.07
2018-06-12T12:17:34.898Z,87.40
2018-06-12T12:18:49.396Z,82.03
2018-06-12T12:19:35.399Z,87.16
2018-06-12T12:20:35.403Z,81.79
2018-06-12T12:21:35.397Z,81.79
2018-06-12T12:22:41.934Z,86.67
2018-06-12T12:23:57.895Z,73.97
2018-06-12T12:24:49.899Z,84.47
2018-06-12T12:25:35.897Z,81.79
2018-06-12T12:26:38.397Z,92.53
2018-06-12T12:27:36.399Z,79.35
2018-06-12T12:28:36.449Z,80.81
2018-06-12T12:29:35.881Z,59.57
2018-06-12T12:30:36.913Z,83.74
2018-06-12T12:31:38.900Z,71.78
2018-06-12T12:32:57.896Z,81.79
2018-06-12T12:33:36.897Z,66.41
2018-06-12T12:34:43.397Z,76.90
2018-06-12T12:36:04.397Z,81.05
2018-06-12T12:39:08.916Z,79.83
2018-06-12T12:40:08.911Z,84.23
2018-06-12T12:41:32.409Z,79.59
2018-06-12T12:44:40.154Z,74.71
2018-06-12T12:45:40.804Z,77.64
2018-06-12T12:49:12.045Z,75.44
2018-06-12T12:52:44.808Z,80.08
2018-06-12T12:56:40.377Z,80.32
2018-06-12T12:57:16.445Z,73.73
2018-06-12T12:58:16.944Z,81.05
2018-06-12T13:05:52.582Z,79.35
2018-06-12T13:06:52.575Z,79.10
2018-06-12T13:07:53.080Z,76.66
2018-06-12T13:08:53.076Z,82.28
2018-06-12T13:09:53.077Z,79.35
2018-06-12T13:10:53.075Z,76.42
2018-06-12T13:11:53.574Z,83.01
2018-06-12T13:12:53.573Z,77.39
2018-06-12T13:13:53.620Z,55.42
2018-06-12T13:14:53.593Z,80.57
2018-06-12T13:15:54.080Z,79.10
2018-06-12T13:17:14.308Z,80.08
2018-06-12T13:17:54.077Z,81.05
2018-06-12T13:18:54.077Z,79.83
2018-06-12T13:19:54.578Z,79.59
2018-06-12T13:20:54.577Z,79.10
2018-06-12T13:21:54.585Z,81.79
2018-06-12T13:23:09.080Z,79.35
2018-06-12T13:24:16.078Z,80.57
2018-06-12T13:25:16.087Z,79.10
2018-06-12T13:25:55.085Z,81.30
2018-06-12T13:26:54.567Z,77.64
2018-06-12T13:28:16.578Z,80.08
2018-06-12T13:28:55.578Z,76.66
2018-06-12T13:29:54.934Z,79.35
2018-06-12T13:30:55.036Z,75.93
2018-06-12T13:31:56.083Z,67.14
2018-06-12T13:32:56.078Z,78.86
2018-06-12T13:33:56.186Z,78.61
2018-06-12T13:34:59.011Z,78.13
2018-06-12T13:36:19.579Z,73.49
2018-06-12T13:37:17.585Z,81.79
2018-06-12T13:37:55.953Z,81.54
2018-06-12T13:39:17.579Z,81.30
2018-06-12T13:44:00.793Z,82.28
2018-06-12T13:45:00.793Z,81.05
2018-06-12T13:46:22.295Z,76.66
2018-06-12T13:47:01.286Z,79.59
2018-06-12T13:48:15.285Z,79.59
2018-06-12T13:49:01.292Z,78.37
2018-06-12T13:50:01.788Z,80.08
2018-06-12T13:51:01.786Z,77.39
2018-06-12T13:52:01.146Z,79.35
2018-06-12T13:53:03.789Z,84.23
2018-06-12T13:54:02.286Z,78.13
2018-06-12T13:55:04.285Z,81.05
2018-06-12T13:56:03.767Z,85.94
2018-06-12T13:57:02.286Z,81.79
2018-06-12T13:58:02.786Z,79.83
2018-06-12T13:59:02.793Z,83.01
2018-06-12T14:00:11.336Z,80.81
2018-06-12T14:01:03.290Z,80.57
2018-06-12T14:02:03.287Z,81.79
2018-06-12T14:03:03.292Z,82.28
2018-06-12T14:04:11.218Z,79.10
2018-06-12T14:05:04.219Z,79.59
2018-06-12T14:08:35.079Z,83.50
2018-06-12T14:09:35.079Z,73.24
2018-06-12T14:10:35.596Z,79.10
2018-06-12T14:11:35.581Z,51.51
2018-06-12T14:12:35.578Z,80.81
2018-06-12T14:13:56.577Z,75.68
2018-06-12T14:17:28.359Z,81.05
2018-06-12T14:18:07.349Z,75.20
2018-06-12T14:19:07.876Z,81.05
2018-06-12T14:22:39.244Z,81.79
2018-06-12T14:23:39.242Z,79.59
2018-06-12T14:24:39.740Z,80.57
2018-06-12T14:26:00.742Z,82.76
2018-06-12T14:26:39.100Z,81.05
2018-06-12T14:27:39.743Z,80.08
2018-06-12T14:29:02.239Z,55.42
2018-06-12T14:30:01.240Z,80.81
2018-06-12T14:30:42.240Z,76.42
2018-06-12T14:31:40.245Z,77.39
2018-06-12T14:33:01.749Z,80.81
2018-06-12T14:33:42.214Z,78.13
2018-06-12T14:34:42.694Z,82.52
2018-06-12T14:35:42.676Z,81.30
2018-06-12T14:36:41.240Z,81.54
2018-06-12T14:38:02.240Z,80.08
2018-06-12T14:38:41.240Z,81.54
2018-06-12T14:39:41.240Z,77.88
2018-06-12T14:40:40.846Z,79.59
2018-06-12T14:41:41.743Z,79.35
2018-06-12T14:42:41.747Z,75.68
2018-06-12T14:43:41.755Z,70.07
2018-06-12T14:44:56.241Z,85.21
2018-06-12T14:46:03.241Z,83.50
2018-06-12T14:46:42.250Z,83.50
2018-06-12T14:47:43.172Z,83.50
2018-06-12T14:49:03.741Z,83.98
2018-06-12T14:50:03.741Z,84.47
2018-06-12T14:50:42.743Z,78.37
2018-06-12T14:52:03.239Z,81.30
2018-06-12T14:55:13.944Z,81.79
2018-06-12T14:56:16.942Z,82.28
2018-06-12T14:57:19.943Z,85.45
2018-06-12T14:58:15.015Z,84.23
2018-06-12T14:59:15.057Z,82.76
2018-06-12T15:00:15.025Z,82.76
2018-06-12T15:01:30.943Z,83.50
2018-06-12T15:02:14.750Z,81.30
2018-06-12T15:03:36.511Z,82.03
2018-06-12T15:04:15.548Z,83.25
2018-06-12T15:05:16.043Z,81.05
2018-06-12T15:06:16.012Z,83.25
2018-06-12T15:07:16.015Z,80.57
2018-06-12T15:08:15.539Z,81.30
2018-06-12T15:09:16.511Z,82.52
2018-06-12T15:10:16.519Z,84.23
2018-06-12T15:11:16.518Z,83.25
2018-06-12T15:12:15.995Z,83.74
2018-06-12T15:13:17.015Z,83.98
2018-06-12T15:14:17.012Z,83.50
2018-06-12T15:15:17.011Z,81.05
2018-06-12T15:16:17.012Z,83.25
2018-06-12T15:19:48.782Z,80.08
2018-06-12T15:23:20.927Z,83.98
2018-06-12T15:24:43.857Z,85.69
2018-06-12T15:25:20.976Z,79.59
2018-06-12T15:26:42.433Z,80.57
2018-06-12T15:27:21.421Z,80.57
2018-06-12T15:28:42.426Z,82.03
2018-06-12T15:29:21.424Z,83.25
2018-06-12T15:30:21.924Z,83.98